Lakewood, Pennsylvania
Current Conditions -  °F | °C
As of 7:55 PM on Friday 24 Oct 2014 (Local Time) from KMSV Reporting Station
Clear Clear  
Wind Chill: 52°   Ceiling: Unl
Heat Index: 52°   Visibility: 10mi
Dew Point: 36°   Wind: 8mph
Humidity: 54%   Direction: 320°NW
Pressure: 29.85"   Gusts: 16mph
Location:  41.85°N, 75.38°W
Report Text: KMSV 242355Z AUTO 32007G14KT 10SM CLR 11/02 A2985 RMK AO1 60001 10160 20110 401600060 52014
Loading
Personal Weather Stations






























Interactive Weather Map
Tropical Storm Tracking
New forecast layout! Learn more

10-Day Weather Forecast

Advertisements
Track Severe Weather on mobile